sensor_id;sensor_type;location;lat;lon;timestamp;temperature;humidity
34522;DHT22;25561;48.888;8.736;2023-04-24T05:30:35;10.70;99.90
34522;DHT22;25561;48.888;8.736;2023-04-24T05:33:37;11.30;99.90
34522;DHT22;25561;48.888;8.736;2023-04-24T05:36:39;11.90;99.90
34522;DHT22;25561;48.888;8.736;2023-04-24T05:39:41;12.10;99.90
34522;DHT22;25561;48.888;8.736;2023-04-24T05:42:44;12.70;99.90
34522;DHT22;25561;48.888;8.736;2023-04-24T05:45:46;13.10;99.90
34522;DHT22;25561;48.888;8.736;2023-04-24T05:48:49;13.50;99.90
34522;DHT22;25561;48.888;8.736;2023-04-24T05:51:51;14.20;99.90
34522;DHT22;25561;48.888;8.736;2023-04-24T05:54:52;15.10;99.90
34522;DHT22;25561;48.888;8.736;2023-04-24T05:57:56;15.40;99.90
34522;DHT22;25561;48.888;8.736;2023-04-24T06:00:57;14.50;99.90
34522;DHT22;25561;48.888;8.736;2023-04-24T06:04:02;13.10;99.90
34522;DHT22;25561;48.888;8.736;2023-04-24T06:07:04;14.00;99.90
34522;DHT22;25561;48.888;8.736;2023-04-24T06:10:07;13.90;99.90
34522;DHT22;25561;48.888;8.736;2023-04-24T06:48:45;13.00;99.90
34522;DHT22;25561;48.888;8.736;2023-04-24T06:51:47;12.30;99.90
34522;DHT22;25561;48.888;8.736;2023-04-24T06:54:50;13.00;99.90
34522;DHT22;25561;48.888;8.736;2023-04-24T06:57:54;14.20;99.90
34522;DHT22;25561;48.888;8.736;2023-04-24T07:00:58;14.10;99.90
34522;DHT22;25561;48.888;8.736;2023-04-24T07:04:00;14.00;99.90
34522;DHT22;25561;48.888;8.736;2023-04-24T07:07:03;14.10;99.90
34522;DHT22;25561;48.888;8.736;2023-04-24T07:10:08;14.90;99.90
34522;DHT22;25561;48.888;8.736;2023-04-24T07:13:11;15.10;99.90
34522;DHT22;25561;48.888;8.736;2023-04-24T07:16:14;15.70;99.90
34522;DHT22;25561;48.888;8.736;2023-04-24T07:19:16;15.30;99.90
34522;DHT22;25561;48.888;8.736;2023-04-24T07:22:18;14.40;99.90
34522;DHT22;25561;48.888;8.736;2023-04-24T07:25:22;13.40;99.90
34522;DHT22;25561;48.888;8.736;2023-04-24T07:28:24;14.10;99.90
34522;DHT22;25561;48.888;8.736;2023-04-24T07:31:33;13.90;99.90
34522;DHT22;25561;48.888;8.736;2023-04-24T07:34:35;13.00;99.90
34522;DHT22;25561;48.888;8.736;2023-04-24T07:37:37;13.50;99.90
34522;DHT22;25561;48.888;8.736;2023-04-24T07:40:39;13.80;99.90
34522;DHT22;25561;48.888;8.736;2023-04-24T07:43:41;13.30;99.90
34522;DHT22;25561;48.888;8.736;2023-04-24T07:46:43;13.00;99.90
34522;DHT22;25561;48.888;8.736;2023-04-24T07:49:45;12.90;99.90
34522;DHT22;25561;48.888;8.736;2023-04-24T07:52:47;14.40;99.90
34522;DHT22;25561;48.888;8.736;2023-04-24T07:55:49;15.40;99.90
34522;DHT22;25561;48.888;8.736;2023-04-24T07:58:52;15.30;99.90
34522;DHT22;25561;48.888;8.736;2023-04-24T08:01:55;17.30;99.90
34522;DHT22;25561;48.888;8.736;2023-04-24T08:04:58;16.70;99.90
34522;DHT22;25561;48.888;8.736;2023-04-24T08:08:01;16.90;99.90
34522;DHT22;25561;48.888;8.736;2023-04-24T08:11:05;17.60;99.90
34522;DHT22;25561;48.888;8.736;2023-04-24T08:14:08;18.70;99.90
34522;DHT22;25561;48.888;8.736;2023-04-24T08:17:10;20.10;99.90
34522;DHT22;25561;48.888;8.736;2023-04-24T08:20:12;18.50;99.90
34522;DHT22;25561;48.888;8.736;2023-04-24T08:23:18;17.90;99.90
34522;DHT22;25561;48.888;8.736;2023-04-24T08:26:20;18.50;99.90
34522;DHT22;25561;48.888;8.736;2023-04-24T08:29:22;18.70;99.90
34522;DHT22;25561;48.888;8.736;2023-04-24T08:32:26;19.50;99.90
34522;DHT22;25561;48.888;8.736;2023-04-24T08:35:31;21.00;99.90
34522;DHT22;25561;48.888;8.736;2023-04-24T08:38:34;19.30;99.90
34522;DHT22;25561;48.888;8.736;2023-04-24T08:41:37;16.60;99.90
34522;DHT22;25561;48.888;8.736;2023-04-24T08:44:40;15.40;99.90
34522;DHT22;25561;48.888;8.736;2023-04-24T08:47:44;14.60;99.90
34522;DHT22;25561;48.888;8.736;2023-04-24T08:50:49;13.90;99.90
34522;DHT22;25561;48.888;8.736;2023-04-24T08:53:54;15.60;99.90
34522;DHT22;25561;48.888;8.736;2023-04-24T08:56:59;17.30;99.90
34522;DHT22;25561;48.888;8.736;2023-04-24T09:00:03;19.70;99.90
34522;DHT22;25561;48.888;8.736;2023-04-24T09:03:06;18.50;99.90
34522;DHT22;25561;48.888;8.736;2023-04-24T09:06:10;16.50;99.90
34522;DHT22;25561;48.888;8.736;2023-04-24T09:09:13;15.90;99.90
34522;DHT22;25561;48.888;8.736;2023-04-24T09:12:17;14.50;99.90
34522;DHT22;25561;48.888;8.736;2023-04-24T09:15:19;14.10;99.90
34522;DHT22;25561;48.888;8.736;2023-04-24T09:18:22;14.20;99.90
34522;DHT22;25561;48.888;8.736;2023-04-24T09:21:24;15.50;99.90
34522;DHT22;25561;48.888;8.736;2023-04-24T09:24:27;18.10;99.90
34522;DHT22;25561;48.888;8.736;2023-04-24T09:27:29;19.80;99.90
34522;DHT22;25561;48.888;8.736;2023-04-24T09:30:31;20.30;99.90
34522;DHT22;25561;48.888;8.736;2023-04-24T09:33:33;19.60;99.90
34522;DHT22;25561;48.888;8.736;2023-04-24T09:36:38;18.60;99.90
34522;DHT22;25561;48.888;8.736;2023-04-24T09:39:41;18.90;99.90
34522;DHT22;25561;48.888;8.736;2023-04-24T09:42:52;20.20;99.90
34522;DHT22;25561;48.888;8.736;2023-04-24T09:45:57;19.70;99.90
34522;DHT22;25561;48.888;8.736;2023-04-24T09:49:09;18.20;99.90
34522;DHT22;25561;48.888;8.736;2023-04-24T09:52:12;16.30;99.90
34522;DHT22;25561;48.888;8.736;2023-04-24T09:55:19;15.70;99.90
34522;DHT22;25561;48.888;8.736;2023-04-24T09:58:25;15.50;99.90
34522;DHT22;25561;48.888;8.736;2023-04-24T10:01:31;15.20;99.90
34522;DHT22;25561;48.888;8.736;2023-04-24T10:04:33;14.20;99.90
34522;DHT22;25561;48.888;8.736;2023-04-24T10:07:38;13.80;99.90
34522;DHT22;25561;48.888;8.736;2023-04-24T10:10:43;12.60;99.90
34522;DHT22;25561;48.888;8.736;2023-04-24T10:13:45;12.80;99.90
34522;DHT22;25561;48.888;8.736;2023-04-24T10:16:49;13.30;99.90
34522;DHT22;25561;48.888;8.736;2023-04-24T10:19:52;14.00;99.90
34522;DHT22;25561;48.888;8.736;2023-04-24T10:22:54;14.10;99.90
34522;DHT22;25561;48.888;8.736;2023-04-24T10:25:56;13.60;99.90
34522;DHT22;25561;48.888;8.736;2023-04-24T10:29:01;12.70;99.90
34522;DHT22;25561;48.888;8.736;2023-04-24T10:32:03;13.00;99.90
34522;DHT22;25561;48.888;8.736;2023-04-24T10:35:07;12.80;99.90
34522;DHT22;25561;48.888;8.736;2023-04-24T10:38:12;12.70;99.90
34522;DHT22;25561;48.888;8.736;2023-04-24T10:41:15;12.40;99.90
34522;DHT22;25561;48.888;8.736;2023-04-24T10:44:25;13.00;99.90
34522;DHT22;25561;48.888;8.736;2023-04-24T10:47:30;13.00;99.90
34522;DHT22;25561;48.888;8.736;2023-04-24T10:50:45;13.40;99.90
34522;DHT22;25561;48.888;8.736;2023-04-24T10:53:49;14.20;99.90
34522;DHT22;25561;48.888;8.736;2023-04-24T10:56:52;15.00;99.90
34522;DHT22;25561;48.888;8.736;2023-04-24T11:00:29;14.90;99.90
34522;DHT22;25561;48.888;8.736;2023-04-24T11:03:33;14.90;99.90
34522;DHT22;25561;48.888;8.736;2023-04-24T11:06:36;15.70;99.90
34522;DHT22;25561;48.888;8.736;2023-04-24T11:09:38;15.60;99.90
34522;DHT22;25561;48.888;8.736;2023-04-24T11:12:43;15.20;99.90
34522;DHT22;25561;48.888;8.736;2023-04-24T11:15:45;14.30;99.90
34522;DHT22;25561;48.888;8.736;2023-04-24T11:22:15;13.60;99.90
34522;DHT22;25561;48.888;8.736;2023-04-24T11:25:18;13.50;99.90
34522;DHT22;25561;48.888;8.736;2023-04-24T11:28:20;13.50;99.90
34522;DHT22;25561;48.888;8.736;2023-04-24T11:31:39;13.60;99.90
34522;DHT22;25561;48.888;8.736;2023-04-24T11:34:41;13.80;99.90
34522;DHT22;25561;48.888;8.736;2023-04-24T11:37:48;13.70;99.90
34522;DHT22;25561;48.888;8.736;2023-04-24T11:40:55;13.80;99.90
34522;DHT22;25561;48.888;8.736;2023-04-24T11:43:57;14.10;99.90
34522;DHT22;25561;48.888;8.736;2023-04-24T11:47:00;13.60;99.90
34522;DHT22;25561;48.888;8.736;2023-04-24T11:50:04;13.20;99.90
34522;DHT22;25561;48.888;8.736;2023-04-24T11:53:06;12.70;99.90
34522;DHT22;25561;48.888;8.736;2023-04-24T11:56:17;12.90;99.90
34522;DHT22;25561;48.888;8.736;2023-04-24T11:59:20;13.30;99.90
34522;DHT22;25561;48.888;8.736;2023-04-24T12:02:26;13.30;99.90
34522;DHT22;25561;48.888;8.736;2023-04-24T12:05:29;13.20;99.90
34522;DHT22;25561;48.888;8.736;2023-04-24T12:08:33;13.20;99.90
34522;DHT22;25561;48.888;8.736;2023-04-24T12:11:52;13.30;99.90
34522;DHT22;25561;48.888;8.736;2023-04-24T12:14:56;13.60;99.90
34522;DHT22;25561;48.888;8.736;2023-04-24T12:17:59;12.70;99.90
34522;DHT22;25561;48.888;8.736;2023-04-24T12:21:19;13.30;99.90
34522;DHT22;25561;48.888;8.736;2023-04-24T12:24:24;14.00;99.90
34522;DHT22;25561;48.888;8.736;2023-04-24T12:27:28;13.50;99.90
34522;DHT22;25561;48.888;8.736;2023-04-24T12:30:40;13.40;99.90
34522;DHT22;25561;48.888;8.736;2023-04-24T12:33:43;13.30;99.90
34522;DHT22;25561;48.888;8.736;2023-04-24T12:36:46;13.20;99.90
34522;DHT22;25561;48.888;8.736;2023-04-24T12:40:18;12.80;99.90
34522;DHT22;25561;48.888;8.736;2023-04-24T12:43:21;12.30;99.90
34522;DHT22;25561;48.888;8.736;2023-04-24T12:46:24;12.10;99.90
34522;DHT22;25561;48.888;8.736;2023-04-24T12:49:26;12.20;99.90
34522;DHT22;25561;48.888;8.736;2023-04-24T12:52:38;12.40;99.90
34522;DHT22;25561;48.888;8.736;2023-04-24T12:55:42;12.80;99.90
34522;DHT22;25561;48.888;8.736;2023-04-24T12:58:44;12.90;99.90
34522;DHT22;25561;48.888;8.736;2023-04-24T13:01:46;13.20;99.90
34522;DHT22;25561;48.888;8.736;2023-04-24T13:04:48;13.70;99.90
34522;DHT22;25561;48.888;8.736;2023-04-24T13:07:50;14.30;99.90
34522;DHT22;25561;48.888;8.736;2023-04-24T13:10:52;14.30;99.90
34522;DHT22;25561;48.888;8.736;2023-04-24T13:13:55;14.10;99.90
34522;DHT22;25561;48.888;8.736;2023-04-24T13:16:57;13.90;99.90
34522;DHT22;25561;48.888;8.736;2023-04-24T13:19:59;13.80;99.90
34522;DHT22;25561;48.888;8.736;2023-04-24T13:23:02;13.80;99.90
34522;DHT22;25561;48.888;8.736;2023-04-24T13:26:04;13.30;99.90
34522;DHT22;25561;48.888;8.736;2023-04-24T13:29:07;13.30;99.90
34522;DHT22;25561;48.888;8.736;2023-04-24T13:32:09;13.60;99.90
34522;DHT22;25561;48.888;8.736;2023-04-24T13:35:11;13.50;99.90
34522;DHT22;25561;48.888;8.736;2023-04-24T13:38:14;13.60;99.90
34522;DHT22;25561;48.888;8.736;2023-04-24T13:41:16;13.50;99.90
34522;DHT22;25561;48.888;8.736;2023-04-24T13:44:19;13.60;99.90
34522;DHT22;25561;48.888;8.736;2023-04-24T13:47:21;13.70;99.90
34522;DHT22;25561;48.888;8.736;2023-04-24T13:50:23;13.90;99.90
34522;DHT22;25561;48.888;8.736;2023-04-24T13:53:25;13.30;99.90
34522;DHT22;25561;48.888;8.736;2023-04-24T13:56:27;13.40;99.90
34522;DHT22;25561;48.888;8.736;2023-04-24T13:59:29;13.80;99.90
34522;DHT22;25561;48.888;8.736;2023-04-24T14:02:31;14.00;99.90
34522;DHT22;25561;48.888;8.736;2023-04-24T14:05:33;14.20;99.90
34522;DHT22;25561;48.888;8.736;2023-04-24T14:08:38;14.40;99.90
34522;DHT22;25561;48.888;8.736;2023-04-24T14:11:40;14.00;99.90
34522;DHT22;25561;48.888;8.736;2023-04-24T14:14:42;13.40;99.90
34522;DHT22;25561;48.888;8.736;2023-04-24T14:17:44;13.50;99.90
34522;DHT22;25561;48.888;8.736;2023-04-24T14:20:46;13.30;99.90
34522;DHT22;25561;48.888;8.736;2023-04-24T14:23:49;12.80;99.90
34522;DHT22;25561;48.888;8.736;2023-04-24T14:26:51;12.90;99.90
34522;DHT22;25561;48.888;8.736;2023-04-24T14:29:53;13.40;99.90
34522;DHT22;25561;48.888;8.736;2023-04-24T14:32:54;13.30;99.90
34522;DHT22;25561;48.888;8.736;2023-04-24T14:35:57;13.50;99.90
34522;DHT22;25561;48.888;8.736;2023-04-24T14:38:58;13.40;99.90
34522;DHT22;25561;48.888;8.736;2023-04-24T14:42:01;13.60;99.90
34522;DHT22;25561;48.888;8.736;2023-04-24T14:45:03;13.40;99.90
34522;DHT22;25561;48.888;8.736;2023-04-24T14:48:06;12.90;99.90
34522;DHT22;25561;48.888;8.736;2023-04-24T14:51:08;12.80;99.90
34522;DHT22;25561;48.888;8.736;2023-04-24T14:54:10;12.50;99.90
34522;DHT22;25561;48.888;8.736;2023-04-24T14:57:12;12.40;99.90
34522;DHT22;25561;48.888;8.736;2023-04-24T15:00:17;13.00;99.90
34522;DHT22;25561;48.888;8.736;2023-04-24T15:03:19;13.20;99.90
34522;DHT22;25561;48.888;8.736;2023-04-24T15:06:23;13.30;99.90
34522;DHT22;25561;48.888;8.736;2023-04-24T15:09:26;13.20;99.90
34522;DHT22;25561;48.888;8.736;2023-04-24T15:12:28;13.40;99.90
34522;DHT22;25561;48.888;8.736;2023-04-24T15:15:31;13.00;99.90
34522;DHT22;25561;48.888;8.736;2023-04-24T15:18:32;12.50;99.90
34522;DHT22;25561;48.888;8.736;2023-04-24T15:21:36;12.50;99.90
34522;DHT22;25561;48.888;8.736;2023-04-24T15:24:38;12.80;99.90
34522;DHT22;25561;48.888;8.736;2023-04-24T15:27:41;12.50;99.90
34522;DHT22;25561;48.888;8.736;2023-04-24T15:30:43;12.40;99.90
34522;DHT22;25561;48.888;8.736;2023-04-24T15:33:45;12.50;99.90
34522;DHT22;25561;48.888;8.736;2023-04-24T15:36:47;12.50;99.90
34522;DHT22;25561;48.888;8.736;2023-04-24T15:39:49;12.70;99.90
34522;DHT22;25561;48.888;8.736;2023-04-24T15:42:52;12.40;99.90
34522;DHT22;25561;48.888;8.736;2023-04-24T15:45:53;12.40;99.90
34522;DHT22;25561;48.888;8.736;2023-04-24T15:48:55;12.30;99.90
34522;DHT22;25561;48.888;8.736;2023-04-24T15:51:57;12.30;99.90
34522;DHT22;25561;48.888;8.736;2023-04-24T15:54:59;12.50;99.90
34522;DHT22;25561;48.888;8.736;2023-04-24T15:58:01;12.60;99.90
